Time;durP1;ratioP1;P1;durP2;ratioP2;P2;SDS_P1;SDS_P2;PMS_P1;PMS_P2;Temp;Humidity;BMP_temperature;BMP_pressure;BME280_temperature;BME280_humidity;BME280_pressure;Samples;Min_cycle;Max_cycle;Signal;HPM_P1;HPM_P2
2023/12/04 00:00:07;;;;;;;;;;;;;;;19.67;35.85;101612.09;2070381;28;6027;-67
2023/12/04 00:01:08;;;;;;;;;;;;;;;19.67;35.94;101608.47;2070038;28;2148;-67
2023/12/04 00:02:10;;;;;;;;;;;;;;;19.67;35.85;101614.94;2071013;28;2009;-67
2023/12/04 00:03:11;;;;;;;;;;;;;;;19.67;35.78;101609.22;2069219;28;1935;-68
2023/12/04 00:04:12;;;;;;;;;;;;;;;19.68;35.88;101615.72;2069715;28;2178;-67
2023/12/04 00:05:14;;;;;;;;;;;;;;;19.67;35.79;101620.69;2070490;28;2148;-67
2023/12/04 00:06:16;;;;;;;;;;;;;;;19.68;35.71;101621.47;2070185;28;2232;-67
2023/12/04 00:07:17;;;;;;;;;;;;;;;19.68;35.75;101615.72;2071383;28;2658;-67
2023/12/04 00:08:18;;;;;;;;;;;;;;;19.67;35.59;101617.81;2071877;28;2212;-67
2023/12/04 00:09:20;;;;;;;;;;;;;;;19.66;35.66;101616.34;2069602;28;2092;-67
2023/12/04 00:10:22;;;;;;;;;;;;;;;19.67;35.69;101617.09;2072054;28;2136;-67
2023/12/04 00:11:23;;;;;;;;;;;;;;;19.66;35.68;101619.22;2070617;28;2026;-68
2023/12/04 00:12:25;;;;;;;;;;;;;;;19.65;35.58;101617.72;2070003;28;1810;-67
2023/12/04 00:13:27;;;;;;;;;;;;;;;19.65;35.65;101611.97;2071897;28;2081;-67
2023/12/04 00:14:29;;;;;;;;;;;;;;;19.65;35.69;101614.09;2072241;28;2216;-67
2023/12/04 00:15:30;;;;;;;;;;;;;;;19.65;35.49;101611.97;2071569;28;2049;-68
2023/12/04 00:16:35;;;;;;;;;;;;;;;19.66;35.54;101615.59;2071417;28;2108;-67
2023/12/04 00:17:39;;;;;;;;;;;;;;;19.65;35.55;101606.25;2072045;28;2297;-67
2023/12/04 00:18:41;;;;;;;;;;;;;;;19.66;35.54;101612.72;2070528;28;2144;-67
2023/12/04 00:19:43;;;;;;;;;;;;;;;19.65;35.58;101606.25;2071754;28;2180;-67
2023/12/04 00:20:44;;;;;;;;;;;;;;;19.65;35.63;101611.97;2069937;28;2725;-67
2023/12/04 00:21:46;;;;;;;;;;;;;;;19.65;35.65;101611.97;2069987;28;2089;-66
2023/12/04 00:22:47;;;;;;;;;;;;;;;19.65;35.69;101605.47;2069538;28;2084;-67
2023/12/04 00:23:49;;;;;;;;;;;;;;;19.66;35.59;101613.47;2068186;28;2077;-68
2023/12/04 00:24:50;;;;;;;;;;;;;;;19.65;35.62;101611.97;2067143;28;1998;-67
2023/12/04 00:25:52;;;;;;;;;;;;;;;19.66;35.67;101609.84;2067908;28;2157;-67
2023/12/04 00:26:53;;;;;;;;;;;;;;;19.66;35.69;101609.84;2071548;28;2223;-67
2023/12/04 00:27:55;;;;;;;;;;;;;;;19.65;35.78;101606.25;2069294;28;1986;-67
2023/12/04 00:28:56;;;;;;;;;;;;;;;19.65;35.79;101606.25;2070996;28;1955;-67
2023/12/04 00:29:57;;;;;;;;;;;;;;;19.66;35.76;101601.97;2072306;28;2038;-68
2023/12/04 00:30:59;;;;;;;;;;;;;;;19.65;35.72;101609.09;2069827;28;6018;-68
2023/12/04 00:32:00;;;;;;;;;;;;;;;19.66;35.72;101607.72;2068138;28;2089;-67
2023/12/04 00:33:02;;;;;;;;;;;;;;;19.66;35.82;101606.97;2072400;28;2144;-67
2023/12/04 00:34:03;;;;;;;;;;;;;;;19.66;35.81;101606.97;2070715;28;2126;-67
2023/12/04 00:35:05;;;;;;;;;;;;;;;19.65;35.80;101606.25;2067904;28;2218;-66
2023/12/04 00:36:06;;;;;;;;;;;;;;;19.66;35.88;101604.09;2072527;28;2109;-68
2023/12/04 00:37:08;;;;;;;;;;;;;;;19.66;35.86;101610.59;2070590;28;2002;-67
2023/12/04 00:38:09;;;;;;;;;;;;;;;19.66;35.81;101606.97;2072428;28;2073;-67
2023/12/04 00:39:11;;;;;;;;;;;;;;;19.66;35.76;101613.47;2071822;28;2034;-67
2023/12/04 00:40:12;;;;;;;;;;;;;;;19.66;35.72;101612.72;2070098;28;2029;-68
2023/12/04 00:41:13;;;;;;;;;;;;;;;19.66;35.73;101616.34;2072235;28;2108;-67
2023/12/04 00:42:15;;;;;;;;;;;;;;;19.65;35.58;101611.97;2069501;28;2073;-67
2023/12/04 00:43:16;;;;;;;;;;;;;;;19.65;35.61;101611.97;2070035;28;2233;-67
2023/12/04 00:44:18;;;;;;;;;;;;;;;19.66;35.60;101618.47;2068712;28;2042;-68
2023/12/04 00:45:19;;;;;;;;;;;;;;;19.65;35.56;101617.72;2069071;28;2229;-68
2023/12/04 00:46:21;;;;;;;;;;;;;;;19.64;35.54;101624.84;2070099;28;2000;-67
2023/12/04 00:47:22;;;;;;;;;;;;;;;19.64;35.60;101621.22;2068165;28;2022;-68
2023/12/04 00:48:24;;;;;;;;;;;;;;;19.63;35.60;101614.72;2070432;28;1990;-67
2023/12/04 00:49:25;;;;;;;;;;;;;;;19.63;35.61;101614.72;2071253;28;2252;-67
2023/12/04 00:50:28;;;;;;;;;;;;;;;19.63;35.60;101608.22;2070074;28;2257;-67
2023/12/04 00:51:31;;;;;;;;;;;;;;;19.64;35.50;101603.97;2072541;28;2007;-68
2023/12/04 00:52:33;;;;;;;;;;;;;;;19.63;35.47;101600.38;2071126;28;2093;-68
2023/12/04 00:53:35;;;;;;;;;;;;;;;19.64;35.58;101601.84;2071416;28;2069;-67
2023/12/04 00:54:38;;;;;;;;;;;;;;;19.64;35.64;101598.97;2067573;28;2115;-67
2023/12/04 00:55:39;;;;;;;;;;;;;;;19.65;35.58;101597.63;2071210;28;2042;-67
2023/12/04 00:56:41;;;;;;;;;;;;;;;19.64;35.75;101598.97;2072623;28;2061;-68
2023/12/04 00:57:42;;;;;;;;;;;;;;;19.64;35.76;101604.72;2070016;28;2077;-67
2023/12/04 00:58:44;;;;;;;;;;;;;;;19.64;35.77;101601.84;2071843;28;2080;-67
2023/12/04 00:59:45;;;;;;;;;;;;;;;19.64;35.76;101610.47;2072127;28;2121;-68
2023/12/04 01:00:48;;;;;;;;;;;;;;;19.65;35.84;101606.25;2070870;28;6072;-67
2023/12/04 01:01:50;;;;;;;;;;;;;;;19.64;35.75;101604.72;2067536;28;2044;-67
2023/12/04 01:02:52;;;;;;;;;;;;;;;19.65;35.80;101609.09;2072001;28;2061;-67
2023/12/04 01:03:53;;;;;;;;;;;;;;;19.64;35.75;101604.72;2071484;28;2133;-68
2023/12/04 01:04:54;;;;;;;;;;;;;;;19.64;35.74;101604.72;2070722;28;2081;-67
2023/12/04 01:05:56;;;;;;;;;;;;;;;19.64;35.82;101607.59;2068877;28;2061;-68
2023/12/04 01:06:57;;;;;;;;;;;;;;;19.66;35.82;101601.22;2070274;28;2096;-67
2023/12/04 01:07:59;;;;;;;;;;;;;;;19.65;35.67;101603.38;2071638;28;2221;-67
2023/12/04 01:09:00;;;;;;;;;;;;;;;19.65;35.72;101599.72;2071566;28;1860;-67
2023/12/04 01:10:03;;;;;;;;;;;;;;;19.65;35.74;101602.59;2071111;28;1995;-67
2023/12/04 01:11:04;;;;;;;;;;;;;;;19.65;35.68;101597.63;2071652;28;1939;-67
2023/12/04 01:12:06;;;;;;;;;;;;;;;19.65;35.69;101600.50;2070380;28;2097;-67
2023/12/04 01:13:07;;;;;;;;;;;;;;;19.65;35.69;101600.50;2070298;28;2006;-68
2023/12/04 01:14:08;;;;;;;;;;;;;;;19.64;35.64;101592.47;2071649;28;2073;-67
2023/12/04 01:15:10;;;;;;;;;;;;;;;19.65;35.56;101589.00;2070841;28;2073;-68
2023/12/04 01:16:11;;;;;;;;;;;;;;;19.64;35.71;101586.75;2070593;28;2128;-67
2023/12/04 01:17:13;;;;;;;;;;;;;;;19.63;35.51;101586.00;2070179;28;2096;-67
2023/12/04 01:18:14;;;;;;;;;;;;;;;19.63;35.47;101591.75;2069059;28;2264;-68
2023/12/04 01:19:16;;;;;;;;;;;;;;;19.64;35.59;101581.72;2071979;28;2046;-68
2023/12/04 01:20:17;;;;;;;;;;;;;;;19.62;35.53;101578.72;2069242;28;2228;-67
2023/12/04 01:21:19;;;;;;;;;;;;;;;19.63;35.56;101588.88;2069127;28;2113;-67
2023/12/04 01:22:20;;;;;;;;;;;;;;;19.63;35.57;101590.97;2069933;28;2069;-67
2023/12/04 01:23:22;;;;;;;;;;;;;;;19.63;35.61;101586.00;2068312;28;2085;-67
2023/12/04 01:24:23;;;;;;;;;;;;;;;19.63;35.67;101579.47;2071591;28;2144;-67
2023/12/04 01:25:25;;;;;;;;;;;;;;;19.63;35.63;101586.00;2071037;28;2226;-67
2023/12/04 01:26:27;;;;;;;;;;;;;;;19.63;35.66;101580.25;2072291;28;2061;-67
2023/12/04 01:27:28;;;;;;;;;;;;;;;19.62;35.67;101584.47;2068496;28;2026;-68
2023/12/04 01:28:30;;;;;;;;;;;;;;;19.63;35.61;101583.13;2070082;28;2151;-67
2023/12/04 01:29:32;;;;;;;;;;;;;;;19.62;35.75;101578.72;2068234;28;2308;-68
2023/12/04 01:30:33;;;;;;;;;;;;;;;19.63;35.72;101580.25;2066819;28;6349;-71
2023/12/04 01:31:36;;;;;;;;;;;;;;;19.63;35.74;101580.25;2068633;28;2249;-70
2023/12/04 01:32:37;;;;;;;;;;;;;;;19.64;35.78;101581.00;2069450;28;2258;-68
2023/12/04 01:33:38;;;;;;;;;;;;;;;19.63;35.75;101574.50;2070841;28;2108;-68
2023/12/04 01:34:40;;;;;;;;;;;;;;;19.63;35.77;101580.25;2071549;28;2112;-67
2023/12/04 01:35:41;;;;;;;;;;;;;;;19.63;35.77;101568.75;2068946;28;2296;-67
2023/12/04 01:36:43;;;;;;;;;;;;;;;19.65;35.79;101570.97;2070049;28;2116;-67
2023/12/04 01:37:44;;;;;;;;;;;;;;;19.63;35.81;101574.50;2071992;28;2041;-69
2023/12/04 01:38:45;;;;;;;;;;;;;;;19.64;35.83;101569.50;2069920;28;1994;-67
2023/12/04 01:39:47;;;;;;;;;;;;;;;19.64;35.77;101567.38;2070834;28;2093;-67
2023/12/04 01:40:48;;;;;;;;;;;;;;;19.63;35.75;101571.63;2068900;28;2340;-68
2023/12/04 01:41:50;;;;;;;;;;;;;;;19.64;35.76;101581.72;2066921;28;2057;-68
2023/12/04 01:42:51;;;;;;;;;;;;;;;19.65;35.70;101573.84;2068910;28;2197;-67
2023/12/04 01:43:53;;;;;;;;;;;;;;;19.64;35.68;101578.13;2067830;28;2096;-67
2023/12/04 01:44:55;;;;;;;;;;;;;;;19.63;35.69;101571.63;2065778;28;2093;-67
2023/12/04 01:45:56;;;;;;;;;;;;;;;19.63;35.48;101574.50;2069347;28;2313;-67
2023/12/04 01:46:58;;;;;;;;;;;;;;;19.62;35.77;101578.00;2068963;28;2215;-68
2023/12/04 01:47:59;;;;;;;;;;;;;;;19.61;35.59;101571.50;2069845;28;2066;-68
2023/12/04 01:49:02;;;;;;;;;;;;;;;19.62;35.58;101570.13;2070278;28;2159;-67
2023/12/04 01:50:05;;;;;;;;;;;;;;;19.61;35.54;101574.38;2070920;28;2076;-67
2023/12/04 01:51:06;;;;;;;;;;;;;;;19.62;35.61;101573.00;2070618;28;2092;-68
2023/12/04 01:52:08;;;;;;;;;;;;;;;19.62;35.53;101573.00;2070436;28;2154;-67
2023/12/04 01:53:09;;;;;;;;;;;;;;;19.61;35.64;101574.38;2066734;28;2068;-68
2023/12/04 01:54:11;;;;;;;;;;;;;;;19.62;35.57;101578.00;2069666;28;2164;-67
2023/12/04 01:55:12;;;;;;;;;;;;;;;19.62;35.65;101583.75;2071695;28;2057;-67
2023/12/04 01:56:14;;;;;;;;;;;;;;;19.62;35.59;101573.00;2070214;28;2288;-68
2023/12/04 01:57:15;;;;;;;;;;;;;;;19.61;35.67;101571.50;2069848;28;1806;-67
2023/12/04 01:58:17;;;;;;;;;;;;;;;19.62;35.76;101567.25;2069128;28;2097;-67
2023/12/04 01:59:18;;;;;;;;;;;;;;;19.62;35.82;101569.38;2067876;28;2057;-68
2023/12/04 02:00:20;;;;;;;;;;;;;;;19.61;35.81;101565.75;2070451;28;6036;-67
2023/12/04 02:01:22;;;;;;;;;;;;;;;19.62;35.80;101567.25;2068972;28;2128;-67
2023/12/04 02:02:23;;;;;;;;;;;;;;;19.62;35.80;101567.25;2069532;28;2144;-67
2023/12/04 02:03:25;;;;;;;;;;;;;;;19.63;35.75;101568.00;2068763;28;2096;-67
2023/12/04 02:04:26;;;;;;;;;;;;;;;19.63;35.82;101559.38;2070551;28;2050;-67
2023/12/04 02:05:28;;;;;;;;;;;;;;;19.62;35.77;101567.25;2070549;28;2125;-68
2023/12/04 02:06:29;;;;;;;;;;;;;;;19.63;35.81;101563.00;2069803;28;2336;-68
2023/12/04 02:07:31;;;;;;;;;;;;;;;19.63;35.86;101563.00;2070201;28;2105;-67
2023/12/04 02:08:33;;;;;;;;;;;;;;;19.63;35.88;101563.00;2071757;28;2216;-67
2023/12/04 02:09:34;;;;;;;;;;;;;;;19.63;35.87;101556.50;2071101;28;2227;-67
2023/12/04 02:10:36;;;;;;;;;;;;;;;19.63;35.76;101557.25;2071160;28;2148;-67
2023/12/04 02:11:38;;;;;;;;;;;;;;;19.64;35.77;101560.88;2068036;28;2188;-67
2023/12/04 02:12:40;;;;;;;;;;;;;;;19.63;35.68;101557.25;2069971;28;2183;-67
2023/12/04 02:13:41;;;;;;;;;;;;;;;19.62;35.77;101558.63;2070122;28;2263;-67
2023/12/04 02:14:43;;;;;;;;;;;;;;;19.62;35.85;101550.00;2071291;28;1829;-67
2023/12/04 02:15:44;;;;;;;;;;;;;;;19.63;35.80;101550.75;2070238;28;2157;-68
2023/12/04 02:16:46;;;;;;;;;;;;;;;19.62;35.70;101561.50;2067460;28;2272;-67
2023/12/04 02:17:47;;;;;;;;;;;;;;;19.61;35.81;101548.53;2070494;28;2311;-68
2023/12/04 02:18:49;;;;;;;;;;;;;;;19.62;35.74;101543.50;2068470;28;2046;-67
2023/12/04 02:19:50;;;;;;;;;;;;;;;19.61;35.80;101545.66;2067394;28;2426;-67
2023/12/04 02:20:52;;;;;;;;;;;;;;;19.62;35.82;101550.00;2069747;28;2243;-67
2023/12/04 02:21:53;;;;;;;;;;;;;;;19.62;35.75;101549.25;2070822;28;2268;-68
2023/12/04 02:22:54;;;;;;;;;;;;;;;19.60;35.73;101538.38;2070605;28;2104;-67
2023/12/04 02:23:56;;;;;;;;;;;;;;;19.60;35.74;101547.00;2069273;28;2204;-67
2023/12/04 02:25:00;;;;;;;;;;;;;;;19.62;35.93;101549.25;2070214;28;2096;-67
2023/12/04 02:26:03;;;;;;;;;;;;;;;19.61;35.73;101536.28;2069217;28;2056;-67
2023/12/04 02:27:07;;;;;;;;;;;;;;;19.61;35.86;101544.91;2068878;28;2093;-67
2023/12/04 02:28:09;;;;;;;;;;;;;;;19.61;35.82;101542.78;2067801;28;2092;-67
2023/12/04 02:29:11;;;;;;;;;;;;;;;19.61;35.90;101539.91;2068004;28;2096;-67
2023/12/04 02:30:13;;;;;;;;;;;;;;;19.61;35.84;101537.03;2067282;28;6265;-68
2023/12/04 02:31:14;;;;;;;;;;;;;;;19.61;35.93;101525.53;2069028;28;2065;-67
2023/12/04 02:32:16;;;;;;;;;;;;;;;19.62;35.92;101534.91;2068987;28;2227;-67
2023/12/04 02:33:17;;;;;;;;;;;;;;;19.62;35.97;101538.50;2069955;28;2116;-68
2023/12/04 02:34:18;;;;;;;;;;;;;;;19.62;36.06;101534.91;2069876;28;2167;-68
2023/12/04 02:35:21;;;;;;;;;;;;;;;19.61;36.00;101531.28;2070060;28;2139;-68
2023/12/04 02:36:22;;;;;;;;;;;;;;;19.61;36.03;101536.28;2070344;28;2264;-67
2023/12/04 02:37:24;;;;;;;;;;;;;;;19.61;36.09;101531.28;2069722;28;2177;-68
2023/12/04 02:38:25;;;;;;;;;;;;;;;19.62;36.02;101529.88;2078931;28;2206;-68
2023/12/04 02:39:27;;;;;;;;;;;;;;;19.63;35.98;101522.00;2070734;28;2089;-67
2023/12/04 02:40:29;;;;;;;;;;;;;;;19.61;35.90;101525.53;2067490;28;2132;-68
2023/12/04 02:41:30;;;;;;;;;;;;;;;19.62;36.00;101521.28;2070013;28;2112;-67
2023/12/04 02:42:32;;;;;;;;;;;;;;;19.62;35.99;101523.41;2070695;28;2065;-67
2023/12/04 02:43:33;;;;;;;;;;;;;;;19.62;35.96;101526.28;2070359;28;2196;-68
2023/12/04 02:44:35;;;;;;;;;;;;;;;19.62;36.00;101523.41;2070789;28;2364;-67
2023/12/04 02:45:36;;;;;;;;;;;;;;;19.61;36.04;101522.66;2068976;28;2097;-68
2023/12/04 02:46:38;;;;;;;;;;;;;;;19.62;35.93;101523.41;2070644;28;2140;-67
2023/12/04 02:47:39;;;;;;;;;;;;;;;19.61;35.89;101514.03;2069893;28;2149;-67
2023/12/04 02:48:40;;;;;;;;;;;;;;;19.62;35.86;101523.41;2070477;28;2169;-68
2023/12/04 02:49:42;;;;;;;;;;;;;;;19.61;35.79;101516.91;2070165;28;2347;-67
2023/12/04 02:50:43;;;;;;;;;;;;;;;19.62;35.93;101517.66;2070321;28;2085;-67
2023/12/04 02:51:45;;;;;;;;;;;;;;;19.60;35.93;101512.53;2066170;28;2462;-67
2023/12/04 02:52:46;;;;;;;;;;;;;;;19.60;35.87;101512.53;2066572;28;2257;-67
2023/12/04 02:53:48;;;;;;;;;;;;;;;19.61;35.84;101507.56;2070315;28;2129;-68
2023/12/04 02:54:49;;;;;;;;;;;;;;;19.60;35.86;101506.03;2069271;28;2116;-67
2023/12/04 02:55:50;;;;;;;;;;;;;;;19.60;35.79;101506.78;2065151;28;2215;-68
2023/12/04 02:56:52;;;;;;;;;;;;;;;19.61;35.79;101505.44;2069082;28;2070;-67
2023/12/04 02:57:53;;;;;;;;;;;;;;;19.60;35.86;101512.53;2067016;28;2176;-67
2023/12/04 02:58:55;;;;;;;;;;;;;;;19.60;35.80;101500.28;2065989;28;2144;-68
2023/12/04 02:59:56;;;;;;;;;;;;;;;19.60;35.95;101506.78;2069682;28;2026;-67
2023/12/04 03:00:57;;;;;;;;;;;;;;;19.60;36.04;101506.78;2068871;28;6097;-67
2023/12/04 03:01:59;;;;;;;;;;;;;;;19.61;36.02;101511.16;2070151;28;2411;-67
2023/12/04 03:03:00;;;;;;;;;;;;;;;19.61;36.05;101499.69;2067112;28;2077;-68
2023/12/04 03:04:02;;;;;;;;;;;;;;;19.61;36.01;101496.81;2069586;28;2049;-67
2023/12/04 03:05:04;;;;;;;;;;;;;;;19.61;35.89;101491.06;2069485;28;2438;-68
2023/12/04 03:06:05;;;;;;;;;;;;;;;19.61;35.96;101490.31;2069946;28;1955;-67
2023/12/04 03:07:07;;;;;;;;;;;;;;;19.61;36.01;101490.31;2066998;28;2152;-68
2023/12/04 03:08:08;;;;;;;;;;;;;;;19.61;35.98;101490.31;2069072;28;2113;-67
2023/12/04 03:09:09;;;;;;;;;;;;;;;19.61;36.06;101485.31;2070345;28;2073;-68
2023/12/04 03:10:11;;;;;;;;;;;;;;;19.60;35.97;101480.19;2066718;28;1908;-67
2023/12/04 03:11:12;;;;;;;;;;;;;;;19.61;36.08;101491.06;2066448;28;2181;-68
2023/12/04 03:12:14;;;;;;;;;;;;;;;19.62;36.07;101486.06;2069502;28;2105;-67
2023/12/04 03:13:15;;;;;;;;;;;;;;;19.61;36.01;101481.69;2069873;28;2417;-67
2023/12/04 03:14:17;;;;;;;;;;;;;;;19.61;36.05;101485.31;2069273;28;2097;-67
2023/12/04 03:15:18;;;;;;;;;;;;;;;19.60;36.02;101480.94;2066515;28;2148;-67
2023/12/04 03:16:19;;;;;;;;;;;;;;;19.61;36.02;101484.56;2070565;28;2180;-68
2023/12/04 03:17:21;;;;;;;;;;;;;;;19.61;36.00;101479.56;2067529;28;2104;-67
2023/12/04 03:18:25;;;;;;;;;;;;;;;19.61;36.01;101485.31;2069598;28;2193;-67
2023/12/04 03:19:26;;;;;;;;;;;;;;;19.60;35.97;101492.41;2069823;28;2114;-67
2023/12/04 03:20:28;;;;;;;;;;;;;;;19.61;35.87;101487.44;2068004;28;2145;-67
2023/12/04 03:21:29;;;;;;;;;;;;;;;19.61;35.95;101484.56;2069611;28;2300;-68
2023/12/04 03:22:31;;;;;;;;;;;;;;;19.60;35.94;101483.81;2068989;28;1936;-67
2023/12/04 03:23:33;;;;;;;;;;;;;;;19.60;35.90;101474.44;2070846;28;2116;-68
2023/12/04 03:24:34;;;;;;;;;;;;;;;19.59;35.96;101482.31;2071737;28;2054;-68
2023/12/04 03:25:36;;;;;;;;;;;;;;;19.60;35.92;101483.81;2068099;28;1875;-67
2023/12/04 03:26:37;;;;;;;;;;;;;;;19.58;35.99;101475.06;2068995;28;2077;-68
2023/12/04 03:27:39;;;;;;;;;;;;;;;19.59;35.99;101487.31;2069169;28;2080;-67
2023/12/04 03:28:40;;;;;;;;;;;;;;;19.59;35.92;101481.56;2069433;28;2085;-67
2023/12/04 03:29:42;;;;;;;;;;;;;;;19.59;35.96;101476.56;2068534;28;2331;-68
2023/12/04 03:30:45;;;;;;;;;;;;;;;19.59;36.00;101476.56;2067632;28;6062;-67
2023/12/04 03:31:46;;;;;;;;;;;;;;;19.60;35.92;101477.31;2070891;28;2426;-67
2023/12/04 03:32:49;;;;;;;;;;;;;;;19.59;35.98;101472.97;2069150;28;2128;-67
2023/12/04 03:33:51;;;;;;;;;;;;;;;19.60;36.06;101477.31;2066988;28;2097;-67
2023/12/04 03:34:52;;;;;;;;;;;;;;;19.59;36.05;101470.81;2070602;28;2065;-68
2023/12/04 03:35:54;;;;;;;;;;;;;;;19.59;35.88;101465.06;2069965;28;1799;-67
2023/12/04 03:36:55;;;;;;;;;;;;;;;19.59;35.95;101467.94;2070258;28;2272;-67
2023/12/04 03:37:57;;;;;;;;;;;;;;;19.59;36.03;101455.72;2069447;28;2343;-68
2023/12/04 03:38:58;;;;;;;;;;;;;;;19.58;35.96;101457.81;2067963;28;2025;-67
2023/12/04 03:40:00;;;;;;;;;;;;;;;19.56;35.87;101449.09;2068511;28;2247;-67
2023/12/04 03:41:01;;;;;;;;;;;;;;;19.58;36.01;101452.06;2067575;28;2199;-67
2023/12/04 03:42:02;;;;;;;;;;;;;;;19.57;35.95;101459.22;2069376;28;1906;-68
2023/12/04 03:43:04;;;;;;;;;;;;;;;19.58;35.91;101457.81;2068554;28;2125;-67
2023/12/04 03:44:05;;;;;;;;;;;;;;;19.58;35.94;101449.19;2071334;28;2137;-67
2023/12/04 03:45:07;;;;;;;;;;;;;;;19.58;35.90;101457.06;2069929;28;2116;-68
2023/12/04 03:46:08;;;;;;;;;;;;;;;19.58;36.01;101449.19;2068458;28;2221;-68
2023/12/04 03:47:10;;;;;;;;;;;;;;;19.59;36.07;101459.34;2065852;28;2189;-67
2023/12/04 03:48:11;;;;;;;;;;;;;;;19.59;35.98;101458.59;2069669;28;2125;-67
2023/12/04 03:49:13;;;;;;;;;;;;;;;19.59;36.05;101450.72;2069983;28;2290;-68
2023/12/04 03:50:15;;;;;;;;;;;;;;;19.59;36.12;101459.34;2068850;28;2077;-67
2023/12/04 03:51:16;;;;;;;;;;;;;;;19.59;36.06;101455.72;2069810;28;2104;-67
2023/12/04 03:52:18;;;;;;;;;;;;;;;19.58;36.04;101452.06;2070255;28;2121;-67
2023/12/04 03:53:19;;;;;;;;;;;;;;;19.60;36.13;101455.06;2070389;28;2435;-68
2023/12/04 03:54:20;;;;;;;;;;;;;;;19.59;36.19;101453.59;2070196;28;2045;-67
2023/12/04 03:55:22;;;;;;;;;;;;;;;19.59;36.29;101456.47;2070741;28;2054;-67
2023/12/04 03:56:23;;;;;;;;;;;;;;;19.61;36.21;101461.59;2070081;28;2257;-68
2023/12/04 03:57:25;;;;;;;;;;;;;;;19.59;36.26;101456.47;2069332;28;2057;-67
2023/12/04 03:58:27;;;;;;;;;;;;;;;19.59;36.18;101447.84;2067344;28;2033;-67
2023/12/04 03:59:28;;;;;;;;;;;;;;;19.60;36.21;101455.06;2067964;28;1971;-67
2023/12/04 04:00:30;;;;;;;;;;;;;;;19.60;36.19;101460.06;2067428;28;7221;-67
2023/12/04 04:01:31;;;;;;;;;;;;;;;19.61;36.25;101461.59;2068986;28;1829;-68
2023/12/04 04:02:33;;;;;;;;;;;;;;;19.60;36.34;101460.81;2068526;28;2065;-68
2023/12/04 04:03:34;;;;;;;;;;;;;;;19.61;36.34;101462.31;2069130;28;2097;-67
2023/12/04 04:04:36;;;;;;;;;;;;;;;19.61;36.40;101450.09;2068328;28;2140;-67
2023/12/04 04:05:37;;;;;;;;;;;;;;;19.61;36.36;101450.84;2069472;28;1990;-67
2023/12/04 04:06:38;;;;;;;;;;;;;;;19.61;36.35;101456.56;2068382;28;2261;-67
2023/12/04 04:07:40;;;;;;;;;;;;;;;19.61;36.35;101450.84;2069237;28;2151;-67
2023/12/04 04:08:42;;;;;;;;;;;;;;;19.62;36.41;101458.06;2070580;28;2070;-67
2023/12/04 04:09:43;;;;;;;;;;;;;;;19.61;36.41;101456.56;2072048;28;2042;-67
2023/12/04 04:10:45;;;;;;;;;;;;;;;19.62;36.47;101452.31;2071868;28;2014;-67
2023/12/04 04:11:46;;;;;;;;;;;;;;;19.63;36.49;101453.84;2070747;28;2061;-67
2023/12/04 04:12:48;;;;;;;;;;;;;;;19.63;36.54;101456.69;2071899;28;2065;-67
2023/12/04 04:13:49;;;;;;;;;;;;;;;19.63;36.47;101456.69;2070791;28;2077;-67
2023/12/04 04:14:51;;;;;;;;;;;;;;;19.64;36.44;101449.56;2071973;28;2160;-68
2023/12/04 04:15:52;;;;;;;;;;;;;;;19.64;36.58;101455.31;2071739;28;1978;-68
2023/12/04 04:16:53;;;;;;;;;;;;;;;19.65;36.54;101450.31;2068974;28;2288;-67
2023/12/04 04:17:55;;;;;;;;;;;;;;;19.64;36.64;101452.44;2071135;28;2147;-67
2023/12/04 04:18:56;;;;;;;;;;;;;;;19.65;36.68;101453.94;2071137;28;2088;-67
2023/12/04 04:19:58;;;;;;;;;;;;;;;19.65;36.55;101447.44;2071299;28;2240;-68
2023/12/04 04:20:59;;;;;;;;;;;;;;;19.65;36.67;101448.22;2070136;28;2281;-67
2023/12/04 04:22:00;;;;;;;;;;;;;;;19.65;36.63;101448.22;2070194;28;2120;-67
2023/12/04 04:23:02;;;;;;;;;;;;;;;19.65;36.50;101445.34;2071459;28;2164;-67
2023/12/04 04:24:03;;;;;;;;;;;;;;;19.66;36.69;101452.56;2071423;28;2203;-67
2023/12/04 04:25:08;;;;;;;;;;;;;;;19.66;36.65;101452.56;2069059;28;1556;-68
2023/12/04 04:26:09;;;;;;;;;;;;;;;19.66;36.70;101449.69;2069032;28;2061;-67
2023/12/04 04:27:11;;;;;;;;;;;;;;;19.66;36.71;101452.56;2071282;28;2077;-66
2023/12/04 04:28:12;;;;;;;;;;;;;;;19.67;36.81;101450.44;2071229;28;2018;-67
2023/12/04 04:29:14;;;;;;;;;;;;;;;19.67;36.71;101448.31;2071944;28;2108;-68
2023/12/04 04:30:17;;;;;;;;;;;;;;;19.67;36.80;101445.44;2069333;28;6028;-68
2023/12/04 04:31:18;;;;;;;;;;;;;;;19.69;36.69;101449.84;2070494;28;2669;-68
2023/12/04 04:32:20;;;;;;;;;;;;;;;19.67;36.84;101448.31;2070156;28;2065;-68
2023/12/04 04:33:21;;;;;;;;;;;;;;;19.69;36.79;101449.84;2070175;28;2069;-67
2023/12/04 04:34:22;;;;;;;;;;;;;;;19.67;36.79;101448.31;2068831;28;2081;-67
2023/12/04 04:35:24;;;;;;;;;;;;;;;19.67;36.82;101448.31;2069351;28;2108;-67
2023/12/04 04:36:25;;;;;;;;;;;;;;;19.67;36.89;101439.69;2069961;28;2045;-68
2023/12/04 04:37:27;;;;;;;;;;;;;;;19.69;36.85;101444.09;2071488;28;2092;-67
2023/12/04 04:38:29;;;;;;;;;;;;;;;19.68;36.81;101440.44;2071039;28;2131;-68
2023/12/04 04:39:30;;;;;;;;;;;;;;;19.67;36.89;101441.81;2069371;28;2376;-68
2023/12/04 04:40:32;;;;;;;;;;;;;;;19.66;36.85;101435.31;2071250;28;2413;-67
2023/12/04 04:41:33;;;;;;;;;;;;;;;19.67;36.88;101441.81;2070817;28;2041;-68
2023/12/04 04:42:35;;;;;;;;;;;;;;;19.68;36.91;101437.56;2069958;28;2033;-67
2023/12/04 04:43:36;;;;;;;;;;;;;;;19.67;36.95;101430.31;2067854;28;2058;-68
2023/12/04 04:44:38;;;;;;;;;;;;;;;19.67;36.97;101442.56;2070558;28;2160;-67
2023/12/04 04:45:39;;;;;;;;;;;;;;;19.67;36.88;101430.31;2069758;28;2018;-67
2023/12/04 04:46:41;;;;;;;;;;;;;;;19.67;36.99;101436.81;2070274;28;2160;-67
2023/12/04 04:47:42;;;;;;;;;;;;;;;19.68;37.01;101440.44;2070794;28;2133;-68
2023/12/04 04:48:43;;;;;;;;;;;;;;;19.69;36.94;101432.59;2069847;28;2213;-68
2023/12/04 04:49:45;;;;;;;;;;;;;;;19.69;36.93;101427.59;2067840;28;2164;-67
2023/12/04 04:50:46;;;;;;;;;;;;;;;19.69;36.87;101424.72;2071370;28;2198;-68
2023/12/04 04:51:48;;;;;;;;;;;;;;;19.69;36.98;101427.59;2070969;28;2081;-68
2023/12/04 04:52:49;;;;;;;;;;;;;;;19.69;36.95;101433.34;2066349;28;1950;-67
2023/12/04 04:53:51;;;;;;;;;;;;;;;19.69;36.94;101423.97;2070584;28;2238;-67
2023/12/04 04:54:52;;;;;;;;;;;;;;;19.69;37.02;101421.09;2071215;28;2113;-67
2023/12/04 04:55:54;;;;;;;;;;;;;;;19.70;37.04;101422.59;2069411;28;2128;-67
2023/12/04 04:56:55;;;;;;;;;;;;;;;19.70;36.98;101417.63;2071439;28;2073;-67
2023/12/04 04:57:57;;;;;;;;;;;;;;;19.70;37.08;101420.50;2069201;28;2160;-67
2023/12/04 04:58:59;;;;;;;;;;;;;;;19.71;37.03;101421.22;2070943;28;2113;-67
2023/12/04 05:00:00;;;;;;;;;;;;;;;19.71;37.02;101424.09;2071923;28;2205;-67
2023/12/04 05:01:02;;;;;;;;;;;;;;;19.72;37.10;101422.72;2069372;28;6123;-67
2023/12/04 05:02:03;;;;;;;;;;;;;;;19.73;37.09;101427.09;2071520;28;2181;-67
2023/12/04 05:03:05;;;;;;;;;;;;;;;19.72;36.97;101426.31;2071290;28;2351;-68
2023/12/04 05:04:06;;;;;;;;;;;;;;;19.72;37.11;101419.84;2067126;28;2391;-67
2023/12/04 05:05:08;;;;;;;;;;;;;;;19.73;37.11;101415.59;2070805;28;2072;-68
2023/12/04 05:06:09;;;;;;;;;;;;;;;19.74;37.13;101422.84;2070425;28;2351;-67
2023/12/04 05:07:10;;;;;;;;;;;;;;;19.73;37.04;101419.22;2071006;28;2182;-67
2023/12/04 05:08:12;;;;;;;;;;;;;;;19.74;37.09;101419.97;2068295;28;1517;-68
2023/12/04 05:09:13;;;;;;;;;;;;;;;19.75;37.17;101409.97;2071126;28;2422;-67
2023/12/04 05:10:15;;;;;;;;;;;;;;;19.74;37.17;101406.34;2072142;28;1556;-67
2023/12/04 05:11:16;;;;;;;;;;;;;;;19.75;37.09;101407.09;2071298;28;2249;-67
2023/12/04 05:12:18;;;;;;;;;;;;;;;19.75;37.23;101401.34;2070986;28;1611;-67
2023/12/04 05:13:19;;;;;;;;;;;;;;;19.75;37.24;101407.09;2069245;28;1708;-67
2023/12/04 05:14:20;;;;;;;;;;;;;;;19.75;37.31;101407.84;2067689;28;2128;-67
2023/12/04 05:15:22;;;;;;;;;;;;;;;19.75;37.25;101412.84;2071149;28;2317;-68
2023/12/04 05:16:23;;;;;;;;;;;;;;;19.75;37.28;101416.47;2068885;28;2026;-68
2023/12/04 05:17:24;;;;;;;;;;;;;;;19.75;37.30;101409.97;2071301;28;2187;-67
2023/12/04 05:18:26;;;;;;;;;;;;;;;19.75;37.30;101407.09;2071245;28;2327;-67
2023/12/04 05:19:28;;;;;;;;;;;;;;;19.75;37.31;101407.09;2071980;28;2093;-67
2023/12/04 05:20:29;;;;;;;;;;;;;;;19.76;37.39;101399.97;2071779;28;2213;-67